Time;durP1;ratioP1;P1;durP2;ratioP2;P2;SDS_P1;SDS_P2;PMS_P1;PMS_P2;Temp;Humidity;BMP_temperature;BMP_pressure;BME280_temperature;BME280_humidity;BME280_pressure;Samples;Min_cycle;Max_cycle;Signal;HPM_P1;HPM_P2
2023/04/15 00:00:46;;;;;;;0.77;0.63;;;16.20;45.50;;;;;;5129262;27;45267;-69
2023/04/15 00:03:12;;;;;;;1.05;0.80;;;16.20;45.50;;;;;;5128872;27;46282;-69
2023/04/15 00:05:41;;;;;;;0.70;0.70;;;16.10;45.50;;;;;;5128886;27;45259;-69
2023/04/15 00:08:08;;;;;;;0.88;0.65;;;16.10;45.40;;;;;;5129126;27;45360;-69
2023/04/15 00:10:34;;;;;;;0.90;0.60;;;16.10;45.50;;;;;;5129100;27;45571;-69
2023/04/15 00:13:03;;;;;;;0.65;0.65;;;16.10;45.50;;;;;;5128628;27;46495;-69
2023/04/15 00:15:29;;;;;;;1.00;0.77;;;16.00;45.40;;;;;;5128876;27;45229;-69
2023/04/15 00:17:56;;;;;;;1.25;0.77;;;16.10;45.50;;;;;;5129019;27;45387;-69
2023/04/15 00:20:23;;;;;;;1.02;0.57;;;16.00;45.50;;;;;;5128974;27;45466;-69
2023/04/15 00:22:52;;;;;;;0.52;0.52;;;16.00;45.50;;;;;;5128610;27;46501;-69
2023/04/15 00:25:19;;;;;;;2.38;0.80;;;16.00;45.60;;;;;;5128397;27;45248;-69
2023/04/15 00:27:46;;;;;;;0.75;0.73;;;16.00;45.50;;;;;;5128776;27;45318;-69
2023/04/15 00:30:13;;;;;;;0.50;0.50;;;16.00;45.60;;;;;;5129171;27;45500;-69
2023/04/15 00:32:41;;;;;;;0.60;0.60;;;16.00;45.60;;;;;;5128356;27;45449;-69
2023/04/15 00:35:08;;;;;;;0.80;0.80;;;15.90;45.60;;;;;;5128328;27;45320;-69
2023/04/15 00:37:35;;;;;;;0.80;0.80;;;15.90;45.70;;;;;;5128528;27;45337;-69
2023/04/15 00:40:06;;;;;;;1.13;0.75;;;15.90;45.70;;;;;;5128658;27;45494;-69
2023/04/15 00:42:34;;;;;;;0.60;0.60;;;15.90;45.80;;;;;;5128297;27;45840;-69
2023/04/15 00:45:01;;;;;;;1.25;0.50;;;15.90;45.80;;;;;;5128025;27;45264;-69
2023/04/15 00:47:28;;;;;;;0.63;0.63;;;15.80;45.80;;;;;;5128377;27;45303;-69
2023/04/15 00:49:55;;;;;;;0.55;0.55;;;15.80;45.80;;;;;;5128502;27;45564;-69
2023/04/15 00:52:22;;;;;;;0.63;0.55;;;15.80;45.80;;;;;;5128057;27;46379;-69
2023/04/15 00:54:50;;;;;;;1.08;0.60;;;15.80;45.90;;;;;;5127956;27;45248;-69
2023/04/15 00:57:18;;;;;;;0.60;0.60;;;15.80;45.90;;;;;;5128356;27;45459;-69
2023/04/15 00:59:45;;;;;;;1.05;0.63;;;15.80;45.90;;;;;;5128096;27;45391;-69
2023/04/15 01:02:12;;;;;;;1.08;0.63;;;15.80;45.90;;;;;;5127903;27;45887;-69
2023/04/15 01:04:39;;;;;;;0.88;0.60;;;15.70;45.90;;;;;;5127909;27;45264;-69
2023/04/15 01:07:05;;;;;;;0.60;0.57;;;15.70;45.90;;;;;;5127830;27;45259;-69
2023/04/15 01:09:33;;;;;;;0.60;0.60;;;15.70;45.90;;;;;;5128215;27;45562;-69
2023/04/15 01:12:01;;;;;;;0.75;0.65;;;15.70;46.00;;;;;;5127990;27;46860;-69
2023/04/15 01:14:29;;;;;;;0.75;0.60;;;15.70;46.10;;;;;;5127831;27;45212;-68
2023/04/15 01:16:56;;;;;;;0.65;0.65;;;15.70;46.00;;;;;;5127844;27;45251;-69
2023/04/15 01:19:23;;;;;;;0.63;0.60;;;15.60;46.00;;;;;;5128078;27;45317;-69
2023/04/15 01:21:49;;;;;;;1.63;0.85;;;15.70;46.10;;;;;;5127849;27;46674;-69
2023/04/15 01:24:17;;;;;;;1.48;0.88;;;15.60;46.10;;;;;;5127551;27;45333;-69
2023/04/15 01:26:46;;;;;;;0.50;0.50;;;15.60;46.00;;;;;;5127682;27;45231;-69
2023/04/15 01:29:13;;;;;;;0.68;0.68;;;15.60;46.10;;;;;;5127925;27;45647;-69
2023/04/15 01:31:39;;;;;;;1.00;0.60;;;15.60;46.10;;;;;;5127376;27;46663;-69
2023/04/15 01:34:06;;;;;;;0.60;0.60;;;15.60;46.10;;;;;;5127431;27;45402;-69
2023/04/15 01:36:33;;;;;;;0.60;0.55;;;15.60;46.10;;;;;;5127604;27;45241;-68
2023/04/15 01:39:00;;;;;;;1.10;0.80;;;15.60;46.10;;;;;;5127753;27;45565;-69
2023/04/15 01:41:27;;;;;;;1.92;0.68;;;15.60;46.10;;;;;;5127401;27;45427;-69
2023/04/15 01:43:56;;;;;;;1.90;0.60;;;15.50;46.10;;;;;;5127744;27;45317;-69
2023/04/15 01:46:23;;;;;;;0.70;0.70;;;15.50;46.10;;;;;;5127318;27;45311;-69
2023/04/15 01:48:49;;;;;;;0.88;0.50;;;15.50;46.10;;;;;;5127916;27;45357;-69
2023/04/15 01:51:16;;;;;;;0.73;0.70;;;15.50;46.10;;;;;;5127218;27;46807;-69
2023/04/15 01:53:43;;;;;;;0.90;0.60;;;15.50;46.10;;;;;;5127315;27;45379;-68
2023/04/15 01:56:10;;;;;;;1.27;0.50;;;15.50;46.20;;;;;;5127210;27;45331;-69
2023/04/15 01:58:37;;;;;;;2.97;0.80;;;15.50;46.20;;;;;;5128043;27;45179;-68
2023/04/15 02:01:05;;;;;;;0.40;0.40;;;15.50;46.20;;;;;;5127031;27;45497;-69
2023/04/15 02:03:32;;;;;;;0.85;0.70;;;15.50;46.20;;;;;;5127140;27;45393;-68
2023/04/15 02:05:59;;;;;;;0.50;0.50;;;15.40;46.10;;;;;;5126894;27;45408;-68
2023/04/15 02:08:26;;;;;;;0.50;0.50;;;15.40;46.20;;;;;;5127185;27;45411;-68
2023/04/15 02:10:53;;;;;;;1.38;0.60;;;15.40;46.20;;;;;;5126174;27;46669;-69
2023/04/15 02:13:20;;;;;;;0.50;0.50;;;15.40;46.20;;;;;;5127014;27;45192;-69
2023/04/15 02:15:51;;;;;;;0.95;0.40;;;15.40;46.30;;;;;;5126823;27;45264;-69
2023/04/15 02:18:19;;;;;;;0.50;0.50;;;15.40;46.80;;;;;;5127390;27;45301;-69
2023/04/15 02:20:47;;;;;;;0.55;0.55;;;15.40;46.30;;;;;;5126721;27;46674;-70
2023/04/15 02:23:14;;;;;;;0.50;0.50;;;15.40;46.30;;;;;;5126840;27;45353;-69
2023/04/15 02:25:41;;;;;;;0.80;0.50;;;15.40;46.30;;;;;;5126795;27;45367;-69
2023/04/15 02:28:08;;;;;;;0.73;0.57;;;15.30;46.30;;;;;;5124546;27;45349;-69
2023/04/15 02:30:34;;;;;;;0.60;0.60;;;15.30;46.30;;;;;;5126851;27;45256;-69
2023/04/15 02:33:02;;;;;;;0.50;0.50;;;15.30;46.40;;;;;;5126689;27;45137;-69
2023/04/15 02:35:30;;;;;;;0.60;0.60;;;15.30;46.40;;;;;;5126734;27;45350;-69
2023/04/15 02:37:57;;;;;;;0.40;0.40;;;15.30;46.30;;;;;;5126877;27;45465;-69
2023/04/15 02:40:23;;;;;;;0.75;0.60;;;15.30;46.40;;;;;;5126570;27;45271;-68
2023/04/15 02:42:50;;;;;;;0.50;0.50;;;15.30;46.40;;;;;;5126579;27;45260;-68
2023/04/15 02:45:19;;;;;;;0.65;0.60;;;15.30;46.50;;;;;;5126336;27;45350;-68
2023/04/15 02:47:46;;;;;;;0.60;0.50;;;15.30;46.50;;;;;;5126545;27;45703;-68
2023/04/15 02:50:14;;;;;;;0.45;0.40;;;15.30;46.40;;;;;;5126392;27;45304;-69
2023/04/15 02:52:42;;;;;;;1.63;0.60;;;15.30;46.40;;;;;;5126371;27;45333;-69
2023/04/15 02:55:09;;;;;;;0.40;0.40;;;15.20;46.40;;;;;;5126463;27;45333;-68
2023/04/15 02:57:37;;;;;;;0.50;0.47;;;15.20;46.40;;;;;;5126801;27;45362;-68
2023/04/15 03:00:08;;;;;;;0.55;0.47;;;15.20;46.40;;;;;;5126301;27;46496;-69
2023/04/15 03:02:35;;;;;;;0.47;0.47;;;15.20;46.50;;;;;;5126414;27;45331;-69
2023/04/15 03:05:02;;;;;;;0.45;0.40;;;15.20;46.40;;;;;;5126451;27;45319;-68
2023/04/15 03:07:28;;;;;;;0.55;0.55;;;15.20;46.50;;;;;;5126471;27;45252;-69
2023/04/15 03:09:56;;;;;;;0.50;0.50;;;15.20;46.60;;;;;;5126099;27;47350;-69
2023/04/15 03:12:23;;;;;;;0.80;0.40;;;15.20;46.50;;;;;;5126393;27;45398;-69
2023/04/15 03:14:50;;;;;;;0.60;0.50;;;15.20;46.50;;;;;;5126233;27;45393;-69
2023/04/15 03:17:17;;;;;;;0.30;0.30;;;15.20;46.50;;;;;;5126291;27;45458;-69
2023/04/15 03:19:44;;;;;;;0.60;0.60;;;15.20;46.60;;;;;;5125964;27;46788;-69
2023/04/15 03:22:11;;;;;;;1.88;0.43;;;15.10;46.40;;;;;;5126851;27;45356;-69
2023/04/15 03:24:38;;;;;;;0.55;0.50;;;15.10;46.50;;;;;;5129712;27;45443;-68
2023/04/15 03:27:06;;;;;;;0.93;0.52;;;15.10;46.50;;;;;;5129724;27;45346;-68
2023/04/15 03:29:33;;;;;;;0.52;0.45;;;15.10;46.50;;;;;;5129461;27;45248;-69
2023/04/15 03:32:00;;;;;;;0.43;0.43;;;15.10;46.50;;;;;;5129701;27;45330;-69
2023/04/15 03:34:27;;;;;;;0.45;0.45;;;15.10;46.50;;;;;;5129629;27;45293;-69
2023/04/15 03:36:54;;;;;;;1.08;0.70;;;15.10;46.50;;;;;;5129604;27;45307;-69
2023/04/15 03:39:21;;;;;;;1.48;0.52;;;15.10;46.60;;;;;;5129208;27;45484;-69
2023/04/15 03:41:47;;;;;;;0.50;0.50;;;15.10;46.50;;;;;;5129471;27;45304;-69
2023/04/15 03:44:16;;;;;;;0.68;0.68;;;15.10;46.40;;;;;;5129408;27;45263;-68
2023/04/15 03:46:43;;;;;;;1.05;0.43;;;15.10;46.50;;;;;;5129265;27;45350;-68
2023/04/15 03:49:10;;;;;;;0.52;0.50;;;15.10;46.50;;;;;;5129366;27;46503;-68
2023/04/15 03:51:36;;;;;;;0.40;0.40;;;15.10;47.20;;;;;;5129116;27;45357;-69
2023/04/15 03:54:03;;;;;;;0.40;0.40;;;15.10;46.50;;;;;;5129399;27;45254;-68
2023/04/15 03:56:30;;;;;;;0.60;0.50;;;15.10;46.60;;;;;;5129461;27;45314;-69
2023/04/15 03:58:57;;;;;;;0.50;0.50;;;15.10;46.50;;;;;;5129131;27;45534;-69
2023/04/15 04:01:25;;;;;;;0.80;0.50;;;15.00;46.50;;;;;;5128963;27;45392;-68
2023/04/15 04:03:52;;;;;;;0.40;0.40;;;15.00;46.50;;;;;;5129193;27;45359;-69
2023/04/15 04:06:19;;;;;;;0.50;0.50;;;15.00;46.60;;;;;;5128990;27;45328;-68
2023/04/15 04:08:45;;;;;;;0.68;0.40;;;15.00;46.50;;;;;;5128881;27;45377;-68
2023/04/15 04:11:12;;;;;;;0.65;0.50;;;15.00;46.50;;;;;;5128954;27;45256;-68
2023/04/15 04:13:39;;;;;;;1.92;0.55;;;15.00;46.40;;;;;;5128920;27;45389;-69
2023/04/15 04:16:06;;;;;;;0.80;0.30;;;15.00;46.50;;;;;;5128795;27;45322;-69
2023/04/15 04:18:34;;;;;;;0.50;0.50;;;15.00;46.50;;;;;;5128602;27;46844;-68
2023/04/15 04:21:01;;;;;;;0.73;0.40;;;15.00;46.50;;;;;;5129017;27;45326;-69
2023/04/15 04:23:28;;;;;;;0.68;0.65;;;15.00;46.40;;;;;;5128772;27;45370;-69
2023/04/15 04:25:55;;;;;;;0.85;0.40;;;15.00;46.40;;;;;;5128677;27;45426;-69
2023/04/15 04:28:21;;;;;;;1.17;0.60;;;15.00;46.50;;;;;;5128457;27;46353;-68
2023/04/15 04:30:48;;;;;;;0.50;0.50;;;15.00;46.50;;;;;;5128755;27;45202;-69
2023/04/15 04:33:15;;;;;;;0.63;0.30;;;15.00;46.50;;;;;;5128148;27;45210;-69
2023/04/15 04:35:43;;;;;;;0.50;0.50;;;15.00;46.60;;;;;;5128556;27;45367;-69
2023/04/15 04:38:10;;;;;;;0.40;0.40;;;15.00;46.60;;;;;;5128327;27;46485;-68
2023/04/15 04:40:37;;;;;;;0.77;0.50;;;15.00;46.50;;;;;;5128469;27;45354;-69
2023/04/15 04:43:04;;;;;;;0.40;0.40;;;15.00;46.60;;;;;;5128444;27;45325;-69
2023/04/15 04:45:30;;;;;;;0.45;0.45;;;15.00;46.60;;;;;;5128329;27;45368;-69
2023/04/15 04:47:57;;;;;;;0.52;0.52;;;15.00;46.60;;;;;;5128103;27;46798;-68
2023/04/15 04:50:24;;;;;;;0.43;0.43;;;15.00;46.60;;;;;;5128172;27;45426;-68
2023/04/15 04:52:52;;;;;;;0.40;0.40;;;14.90;46.60;;;;;;5128429;27;45367;-68
2023/04/15 04:55:19;;;;;;;0.43;0.43;;;14.90;46.50;;;;;;5128417;27;45466;-68
2023/04/15 04:57:46;;;;;;;0.38;0.38;;;14.90;46.60;;;;;;5127919;27;47310;-68
2023/04/15 05:00:13;;;;;;;0.63;0.63;;;14.90;46.60;;;;;;5128107;27;45138;-69
2023/04/15 05:02:42;;;;;;;0.80;0.40;;;14.90;46.70;;;;;;5128224;27;45370;-68
2023/04/15 05:05:09;;;;;;;0.57;0.43;;;14.90;46.60;;;;;;5128257;27;45534;-69
2023/04/15 05:07:36;;;;;;;0.60;0.50;;;14.90;46.70;;;;;;5127661;27;46386;-69
2023/04/15 05:10:06;;;;;;;0.30;0.30;;;14.90;46.70;;;;;;5127944;27;45281;-69
2023/04/15 05:12:32;;;;;;;0.50;0.50;;;14.90;46.70;;;;;;5128030;27;45376;-68
2023/04/15 05:14:59;;;;;;;0.93;0.40;;;14.90;46.70;;;;;;5128025;27;45151;-68
2023/04/15 05:17:26;;;;;;;0.63;0.60;;;14.90;47.30;;;;;;5127553;27;46549;-69
2023/04/15 05:19:53;;;;;;;0.35;0.35;;;14.90;46.80;;;;;;5127801;27;45325;-69
2023/04/15 05:22:20;;;;;;;0.55;0.40;;;14.90;46.80;;;;;;5127950;27;45372;-68
2023/04/15 05:24:47;;;;;;;0.35;0.35;;;14.90;46.80;;;;;;5127846;27;45318;-69
2023/04/15 05:27:15;;;;;;;0.43;0.40;;;14.90;46.80;;;;;;5127258;27;46710;-68
2023/04/15 05:29:42;;;;;;;0.30;0.30;;;14.90;46.80;;;;;;5127634;27;45169;-68
2023/04/15 05:32:09;;;;;;;0.68;0.40;;;14.90;46.90;;;;;;5127750;27;45243;-68
2023/04/15 05:34:36;;;;;;;0.40;0.40;;;14.90;46.80;;;;;;5127695;27;45361;-68
2023/04/15 05:37:02;;;;;;;0.40;0.40;;;14.90;46.80;;;;;;5127248;27;45531;-68
2023/04/15 05:39:31;;;;;;;0.40;0.38;;;14.90;46.80;;;;;;5127641;27;45474;-68
2023/04/15 05:41:58;;;;;;;0.38;0.38;;;14.90;46.80;;;;;;5127655;27;45253;-68
2023/04/15 05:44:26;;;;;;;0.80;0.50;;;14.90;46.80;;;;;;5126970;27;45342;-68
2023/04/15 05:46:53;;;;;;;0.40;0.40;;;14.90;46.90;;;;;;5126665;27;45350;-68
2023/04/15 05:49:20;;;;;;;0.55;0.43;;;14.90;46.90;;;;;;5127406;27;45194;-68
2023/04/15 05:51:47;;;;;;;0.40;0.40;;;14.90;46.80;;;;;;5127498;27;45259;-68
2023/04/15 05:54:14;;;;;;;0.60;0.40;;;14.80;46.80;;;;;;5127506;27;45242;-69
2023/04/15 05:56:41;;;;;;;0.95;0.47;;;14.90;46.90;;;;;;5126912;27;46717;-68
2023/04/15 05:59:08;;;;;;;0.50;0.50;;;14.90;46.90;;;;;;5127088;27;45445;-69
2023/04/15 06:01:36;;;;;;;0.65;0.45;;;14.80;46.80;;;;;;5127268;27;45327;-69
2023/04/15 06:04:02;;;;;;;0.98;0.40;;;14.90;46.90;;;;;;5127413;27;45254;-68
2023/04/15 06:06:31;;;;;;;0.50;0.50;;;14.90;46.80;;;;;;5126321;27;46442;-68
2023/04/15 06:08:58;;;;;;;0.50;0.50;;;14.90;46.80;;;;;;5127013;27;45301;-69
2023/04/15 06:11:26;;;;;;;0.47;0.47;;;14.90;46.80;;;;;;5127256;27;45371;-68
2023/04/15 06:13:52;;;;;;;0.40;0.40;;;14.90;46.80;;;;;;5127334;27;45234;-68
2023/04/15 06:16:20;;;;;;;0.20;0.20;;;14.90;46.80;;;;;;5126561;27;46524;-68
2023/04/15 06:18:48;;;;;;;0.50;0.50;;;14.90;46.80;;;;;;5126897;27;45317;-68
2023/04/15 06:21:14;;;;;;;0.45;0.40;;;14.90;46.80;;;;;;5127119;27;45228;-68
2023/04/15 06:23:41;;;;;;;1.08;0.60;;;14.90;46.80;;;;;;5127201;27;45273;-68
2023/04/15 06:26:08;;;;;;;0.47;0.47;;;14.90;46.90;;;;;;5126441;27;45621;-68
2023/04/15 06:28:35;;;;;;;0.30;0.30;;;14.90;46.80;;;;;;5126810;27;45250;-69
2023/04/15 06:31:01;;;;;;;1.00;0.50;;;14.80;46.90;;;;;;5127066;27;45294;-68
2023/04/15 06:33:29;;;;;;;0.57;0.57;;;14.90;47.00;;;;;;5126986;27;45438;-68
2023/04/15 06:35:57;;;;;;;0.57;0.57;;;14.90;46.90;;;;;;5126212;27;47534;-68
2023/04/15 06:38:24;;;;;;;0.40;0.40;;;14.90;46.90;;;;;;5126500;27;45247;-69
2023/04/15 06:40:51;;;;;;;0.50;0.50;;;14.90;47.00;;;;;;5126693;27;45330;-68
2023/04/15 06:43:18;;;;;;;1.48;0.45;;;14.90;47.00;;;;;;5126792;27;45495;-68
2023/04/15 06:45:45;;;;;;;0.80;0.45;;;14.80;46.90;;;;;;5125839;27;46474;-68
2023/04/15 06:48:12;;;;;;;0.60;0.60;;;14.90;47.00;;;;;;5126310;27;45301;-68
2023/04/15 06:50:39;;;;;;;0.63;0.43;;;14.90;47.00;;;;;;5126646;27;45263;-69
2023/04/15 06:53:07;;;;;;;0.45;0.45;;;14.90;47.00;;;;;;5126516;27;45430;-68
2023/04/15 06:55:34;;;;;;;0.35;0.35;;;14.90;47.00;;;;;;5126061;27;47349;-68
2023/04/15 06:58:01;;;;;;;0.60;0.60;;;14.90;47.00;;;;;;5129679;27;45284;-68
2023/04/15 07:00:28;;;;;;;0.65;0.40;;;14.90;47.00;;;;;;5129941;27;45263;-68
2023/04/15 07:02:55;;;;;;;0.40;0.40;;;14.90;47.00;;;;;;5130128;27;45286;-68
2023/04/15 07:05:22;;;;;;;0.43;0.40;;;14.90;47.00;;;;;;5129527;27;46921;-68
2023/04/15 07:07:49;;;;;;;0.60;0.60;;;14.90;47.00;;;;;;5129518;27;45323;-68
2023/04/15 07:10:17;;;;;;;0.50;0.50;;;15.00;47.00;;;;;;5129748;27;45294;-69
2023/04/15 07:12:44;;;;;;;0.50;0.50;;;14.90;46.90;;;;;;5129918;27;45187;-69
2023/04/15 07:15:11;;;;;;;0.57;0.32;;;14.90;47.00;;;;;;5129368;27;46692;-69
2023/04/15 07:17:38;;;;;;;0.47;0.47;;;15.00;47.00;;;;;;5129488;27;45344;-68
2023/04/15 07:20:06;;;;;;;0.50;0.50;;;15.00;47.00;;;;;;5129720;27;45417;-69
2023/04/15 07:22:32;;;;;;;0.40;0.40;;;15.00;47.00;;;;;;5129898;27;45205;-69
2023/04/15 07:24:59;;;;;;;0.60;0.50;;;15.00;47.00;;;;;;5129333;27;45534;-68
2023/04/15 07:27:27;;;;;;;0.40;0.40;;;15.00;47.00;;;;;;5129206;27;45340;-68
2023/04/15 07:29:54;;;;;;;0.50;0.50;;;15.00;47.00;;;;;;5126788;27;45356;-69
2023/04/15 07:32:21;;;;;;;0.50;0.50;;;15.00;47.00;;;;;;5129634;27;45329;-69
2023/04/15 07:34:48;;;;;;;0.30;0.30;;;15.00;46.90;;;;;;5129080;27;46385;-69
2023/04/15 07:37:15;;;;;;;1.08;0.55;;;15.00;46.90;;;;;;5129192;27;45259;-69
2023/04/15 07:39:42;;;;;;;0.40;0.40;;;15.00;46.90;;;;;;5129562;27;45356;-68
2023/04/15 07:42:09;;;;;;;0.88;0.50;;;15.00;46.90;;;;;;5123053;27;45503;-68
2023/04/15 07:44:37;;;;;;;0.63;0.40;;;15.00;46.90;;;;;;5107966;27;45408;-69
2023/04/15 07:47:04;;;;;;;0.35;0.35;;;15.10;46.90;;;;;;5108625;27;45270;-68
2023/04/15 07:49:31;;;;;;;0.20;0.20;;;15.10;47.00;;;;;;5108452;27;45287;-69
2023/04/15 07:51:58;;;;;;;0.60;0.60;;;15.10;46.90;;;;;;5108600;27;45438;-68
2023/04/15 07:54:26;;;;;;;0.93;0.70;;;15.10;46.90;;;;;;5108249;27;45656;-69
2023/04/15 07:56:53;;;;;;;0.40;0.40;;;15.10;46.90;;;;;;5108059;27;45341;-69
2023/04/15 07:59:20;;;;;;;0.38;0.38;;;15.10;46.90;;;;;;5108315;27;45265;-68
2023/04/15 08:01:48;;;;;;;0.50;0.50;;;15.10;46.90;;;;;;5108636;27;45295;-68
2023/04/15 08:04:15;;;;;;;0.40;0.40;;;15.10;46.90;;;;;;5108078;27;46719;-69
2023/04/15 08:06:42;;;;;;;0.40;0.40;;;15.10;46.90;;;;;;5107928;27;45361;-68
2023/04/15 08:09:10;;;;;;;0.40;0.40;;;15.10;46.80;;;;;;5107332;27;45310;-68
2023/04/15 08:11:37;;;;;;;0.50;0.50;;;15.10;47.10;;;;;;5108332;27;45427;-69
2023/04/15 08:14:03;;;;;;;0.35;0.35;;;15.20;46.90;;;;;;5107825;27;46851;-69
2023/04/15 08:16:30;;;;;;;0.73;0.70;;;15.20;46.90;;;;;;5107716;27;45420;-69
2023/04/15 08:18:58;;;;;;;0.35;0.35;;;15.20;46.90;;;;;;5108102;27;45208;-69
2023/04/15 08:21:26;;;;;;;0.52;0.40;;;15.10;46.80;;;;;;5108146;27;45356;-69
2023/04/15 08:23:53;;;;;;;0.68;0.57;;;15.20;46.90;;;;;;5107804;27;45434;-69
2023/04/15 08:26:20;;;;;;;0.50;0.50;;;15.20;46.90;;;;;;5107578;27;45375;-68
2023/04/15 08:28:47;;;;;;;0.40;0.40;;;15.20;46.80;;;;;;5107720;27;45380;-69
2023/04/15 08:31:14;;;;;;;0.38;0.35;;;15.20;46.80;;;;;;5108134;27;45174;-69
2023/04/15 08:33:41;;;;;;;0.30;0.30;;;15.20;46.80;;;;;;5107580;27;45287;-69
2023/04/15 08:36:09;;;;;;;0.38;0.38;;;15.20;46.80;;;;;;5107349;27;45408;-69
2023/04/15 08:38:36;;;;;;;0.30;0.30;;;15.20;46.80;;;;;;5107799;27;45326;-69
2023/04/15 08:41:04;;;;;;;0.30;0.30;;;15.30;46.80;;;;;;5107762;27;45126;-69
2023/04/15 08:43:34;;;;;;;0.40;0.35;;;15.30;46.80;;;;;;5107554;27;47355;-69
2023/04/15 08:46:01;;;;;;;0.40;0.40;;;15.30;46.80;;;;;;5106798;27;45283;-69
2023/04/15 08:48:29;;;;;;;0.38;0.38;;;15.30;46.80;;;;;;5107523;27;45279;-69
2023/04/15 08:50:56;;;;;;;0.57;0.35;;;15.30;46.80;;;;;;5107699;27;45528;-69
2023/04/15 08:53:24;;;;;;;0.60;0.60;;;15.30;46.80;;;;;;5107221;27;45406;-69
2023/04/15 08:55:52;;;;;;;0.40;0.32;;;15.30;46.70;;;;;;5107204;27;45281;-69
2023/04/15 08:58:19;;;;;;;0.32;0.32;;;15.40;46.70;;;;;;5107612;27;45265;-69
2023/04/15 09:00:47;;;;;;;0.40;0.40;;;15.30;46.70;;;;;;5107508;27;45311;-69
2023/04/15 09:03:14;;;;;;;0.40;0.40;;;15.40;46.70;;;;;;5104811;27;45729;-69
2023/04/15 09:05:42;;;;;;;0.45;0.45;;;15.40;46.70;;;;;;5101898;27;45517;-69
2023/04/15 09:08:08;;;;;;;0.47;0.47;;;15.40;46.70;;;;;;5107759;27;45340;-68
2023/04/15 09:10:37;;;;;;;0.73;0.60;;;15.50;46.70;;;;;;5109704;27;45219;-69
2023/04/15 09:13:03;;;;;;;0.52;0.40;;;15.40;46.50;;;;;;5110817;27;45535;-69
2023/04/15 09:15:31;;;;;;;0.50;0.50;;;15.50;46.50;;;;;;5106363;27;45451;-69
2023/04/15 09:17:57;;;;;;;0.30;0.30;;;15.50;46.60;;;;;;5107084;27;45411;-69
2023/04/15 09:20:24;;;;;;;0.65;0.50;;;15.50;46.60;;;;;;5107063;27;45395;-69
2023/04/15 09:22:51;;;;;;;0.80;0.38;;;15.50;46.60;;;;;;5106354;27;46346;-69
2023/04/15 09:25:28;;;;;;;0.90;0.50;;;15.60;46.60;;;;;;5089369;27;45408;-69
2023/04/15 09:27:57;;;;;;;0.57;0.57;;;15.60;46.50;;;;;;5106471;27;45335;-69
2023/04/15 09:30:24;;;;;;;0.57;0.52;;;15.60;46.50;;;;;;5106700;27;45232;-69
2023/04/15 09:32:51;;;;;;;0.40;0.40;;;15.70;46.50;;;;;;5105774;27;46735;-69
2023/04/15 09:35:18;;;;;;;0.43;0.35;;;15.70;46.40;;;;;;5106150;27;45370;-69
2023/04/15 09:37:45;;;;;;;0.70;0.55;;;15.70;47.00;;;;;;5106508;27;45383;-69
2023/04/15 09:40:13;;;;;;;0.32;0.32;;;15.70;46.30;;;;;;5106683;27;45376;-69
2023/04/15 09:42:55;;;;;;;0.40;0.40;;;15.80;46.20;;;;;;5103767;27;45337;-69
2023/04/15 09:45:23;;;;;;;0.40;0.40;;;15.80;46.10;;;;;;5105848;27;45800;-69
2023/04/15 09:47:51;;;;;;;0.50;0.50;;;15.80;46.70;;;;;;5103275;27;45485;-69
2023/04/15 09:50:19;;;;;;;0.32;0.32;;;15.80;46.00;;;;;;5106336;27;45528;-69
2023/04/15 09:52:45;;;;;;;0.50;0.50;;;15.90;46.00;;;;;;5105412;27;45378;-69
2023/04/15 09:55:13;;;;;;;0.30;0.30;;;15.90;45.90;;;;;;5105982;27;45335;-69
2023/04/15 09:57:40;;;;;;;0.43;0.40;;;15.90;45.90;;;;;;5106184;27;45351;-69
2023/04/15 10:00:10;;;;;;;0.47;0.47;;;16.00;45.90;;;;;;5106303;27;45290;-69
2023/04/15 10:02:37;;;;;;;0.30;0.30;;;16.00;45.90;;;;;;5105282;27;45447;-69
2023/04/15 10:05:04;;;;;;;0.40;0.40;;;16.00;46.00;;;;;;5104716;27;45367;-69
2023/04/15 10:07:31;;;;;;;0.40;0.40;;;16.10;46.00;;;;;;5105917;27;45384;-69
2023/04/15 10:09:58;;;;;;;0.43;0.43;;;16.10;46.00;;;;;;5106051;27;45490;-69
2023/04/15 10:12:25;;;;;;;0.73;0.50;;;16.10;46.10;;;;;;5105874;27;45405;-69
2023/04/15 10:14:53;;;;;;;0.40;0.40;;;16.10;46.10;;;;;;5105927;27;45305;-69
2023/04/15 10:17:22;;;;;;;0.47;0.47;;;16.10;46.00;;;;;;5106093;27;45347;-69
2023/04/15 10:19:49;;;;;;;0.50;0.50;;;16.20;46.10;;;;;;5105079;27;45327;-69
2023/04/15 10:22:16;;;;;;;0.50;0.50;;;16.20;46.10;;;;;;5101454;27;47817;-69
2023/04/15 10:24:44;;;;;;;0.40;0.40;;;16.20;46.70;;;;;;5101645;27;45459;-69
2023/04/15 10:27:11;;;;;;;0.30;0.30;;;16.20;46.10;;;;;;5106093;27;45301;-69
2023/04/15 10:29:37;;;;;;;0.50;0.50;;;16.30;46.10;;;;;;5106261;27;45314;-69
2023/04/15 10:32:05;;;;;;;0.38;0.38;;;16.30;46.10;;;;;;5107916;27;46575;-69
2023/04/15 10:34:33;;;;;;;0.47;0.40;;;16.30;46.10;;;;;;5109444;27;45361;-69
2023/04/15 10:37:02;;;;;;;0.75;0.75;;;16.40;46.20;;;;;;5109520;27;45283;-69
2023/04/15 10:39:43;;;;;;;0.50;0.50;;;16.40;46.10;;;;;;5109844;27;45377;-69
2023/04/15 10:42:10;;;;;;;0.40;0.40;;;16.40;46.10;;;;;;5109610;27;45468;-69
2023/04/15 10:44:38;;;;;;;0.50;0.50;;;16.40;46.10;;;;;;5108982;27;45218;-69
2023/04/15 10:47:09;;;;;;;0.40;0.40;;;16.50;46.10;;;;;;5109389;27;45364;-69
2023/04/15 10:49:43;;;;;;;0.50;0.50;;;16.50;46.10;;;;;;5109501;27;45544;-69
2023/04/15 10:52:10;;;;;;;0.30;0.30;;;16.50;46.10;;;;;;5109369;27;46326;-69
2023/04/15 10:54:38;;;;;;;0.50;0.50;;;16.60;46.20;;;;;;5109114;27;45276;-69
2023/04/15 10:57:09;;;;;;;0.43;0.43;;;16.60;46.10;;;;;;5109086;27;45383;-69
2023/04/15 10:59:37;;;;;;;0.40;0.40;;;16.60;46.10;;;;;;5109432;27;45313;-69
2023/04/15 11:02:05;;;;;;;1.08;0.40;;;16.70;46.10;;;;;;5108916;27;45523;-69
2023/04/15 11:04:56;;;;;;;0.40;0.40;;;16.70;46.00;;;;;;5109092;27;45371;-68
2023/04/15 11:07:39;;;;;;;0.73;0.63;;;16.80;46.00;;;;;;5101929;27;45690;-71
2023/04/15 11:10:48;;;;;;;0.75;0.50;;;16.80;46.00;;;;;;5108927;27;45318;-71
2023/04/15 11:13:16;;;;;;;0.50;0.40;;;16.80;45.90;;;;;;5104652;27;45432;-71
2023/04/15 11:15:44;;;;;;;0.50;0.50;;;16.90;46.00;;;;;;5108520;27;45401;-71
2023/04/15 11:18:11;;;;;;;0.50;0.50;;;16.90;46.00;;;;;;5108490;27;45303;-69
2023/04/15 11:20:40;;;;;;;0.60;0.60;;;16.90;46.00;;;;;;5108454;27;45403;-67
2023/04/15 11:23:08;;;;;;;0.60;0.60;;;16.90;46.10;;;;;;5108067;27;45562;-70
2023/04/15 11:25:36;;;;;;;0.75;0.55;;;16.90;46.20;;;;;;5108107;27;45311;-70
2023/04/15 11:28:03;;;;;;;0.50;0.50;;;16.90;46.20;;;;;;5108216;27;45441;-68
2023/04/15 11:30:32;;;;;;;0.75;0.40;;;16.90;46.40;;;;;;5108252;27;45468;-70
2023/04/15 11:33:00;;;;;;;1.08;0.60;;;16.90;46.50;;;;;;5108155;27;46598;-68
2023/04/15 11:35:27;;;;;;;0.40;0.40;;;16.80;46.50;;;;;;5108292;27;45264;-68
2023/04/15 11:37:55;;;;;;;2.17;0.70;;;16.80;46.80;;;;;;5108296;27;45505;-66
2023/04/15 11:40:22;;;;;;;1.55;0.50;;;16.90;47.20;;;;;;5108085;27;45410;-70
2023/04/15 11:43:04;;;;;;;1.10;0.50;;;16.80;47.00;;;;;;5106806;27;45265;-68
2023/04/15 11:45:31;;;;;;;0.50;0.50;;;16.80;47.10;;;;;;5107598;27;45339;-67
2023/04/15 11:48:05;;;;;;;2.85;0.70;;;16.80;47.20;;;;;;5107971;27;45413;-69
2023/04/15 11:50:32;;;;;;;0.50;0.50;;;16.80;47.20;;;;;;5108117;27;45399;-67
2023/04/15 11:53:01;;;;;;;0.60;0.40;;;16.90;47.30;;;;;;5107583;27;46419;-67
2023/04/15 11:55:28;;;;;;;1.48;0.50;;;16.90;47.20;;;;;;5107774;27;45338;-67
2023/04/15 11:58:17;;;;;;;1.95;0.50;;;16.90;47.20;;;;;;5107716;27;45337;-67
2023/04/15 12:00:47;;;;;;;0.65;0.32;;;16.90;47.30;;;;;;5102920;27;45354;-69
2023/04/15 12:03:17;;;;;;;0.52;0.52;;;16.90;47.30;;;;;;5105593;27;46562;-68
2023/04/15 12:06:12;;;;;;;1.65;0.60;;;16.90;47.30;;;;;;5100261;27;45469;-68
2023/04/15 12:08:51;;;;;;;0.50;0.50;;;16.90;47.20;;;;;;5105083;27;45384;-68
2023/04/15 12:11:18;;;;;;;0.60;0.60;;;16.90;47.20;;;;;;5099838;27;45524;-69
2023/04/15 12:13:47;;;;;;;2.47;0.70;;;16.90;47.20;;;;;;5097060;27;45379;-69
2023/04/15 12:16:16;;;;;;;0.75;0.68;;;16.90;47.30;;;;;;5107780;27;45349;-69
2023/04/15 12:18:45;;;;;;;0.70;0.70;;;16.90;47.20;;;;;;5106776;27;45200;-69
2023/04/15 12:21:12;;;;;;;0.75;0.60;;;16.90;47.30;;;;;;5105385;27;45370;-72
2023/04/15 12:23:40;;;;;;;0.50;0.50;;;17.00;47.20;;;;;;5106884;27;45647;-70
2023/04/15 12:26:08;;;;;;;1.65;0.40;;;17.00;47.20;;;;;;5107781;27;45205;-67
2023/04/15 12:28:35;;;;;;;0.57;0.57;;;17.00;47.10;;;;;;5106194;27;45303;-73
2023/04/15 12:31:07;;;;;;;0.80;0.60;;;17.10;47.00;;;;;;5106047;27;45362;-72
2023/04/15 12:33:34;;;;;;;0.70;0.70;;;17.10;47.60;;;;;;5093578;27;47218;-74
2023/04/15 12:36:01;;;;;;;0.75;0.35;;;17.10;46.90;;;;;;5107574;27;45313;-73
2023/04/15 12:38:27;;;;;;;0.50;0.50;;;17.20;46.90;;;;;;5098116;27;45739;-70
2023/04/15 12:40:54;;;;;;;0.40;0.40;;;17.30;46.80;;;;;;5107464;27;45315;-70
2023/04/15 12:43:22;;;;;;;0.75;0.57;;;17.30;46.60;;;;;;5103492;27;45243;-71
2023/04/15 12:45:49;;;;;;;0.73;0.60;;;17.40;46.40;;;;;;5105443;27;45281;-70
2023/04/15 12:48:16;;;;;;;1.33;0.68;;;17.50;46.30;;;;;;5106501;27;46220;-70
2023/04/15 12:50:43;;;;;;;1.08;0.63;;;17.60;46.10;;;;;;5106638;27;45352;-71